sensor_id;sensor_type;location;lat;lon;timestamp;P1;durP1;ratioP1;P2;durP2;ratioP2
43819;SDS011;67762;52.476;6.046;2023-02-13T00:01:21;71.95;;;61.60;;
43819;SDS011;67762;52.476;6.046;2023-02-13T00:03:46;71.85;;;64.13;;
43819;SDS011;67762;52.476;6.046;2023-02-13T00:06:12;70.40;;;63.10;;
43819;SDS011;67762;52.476;6.046;2023-02-13T00:08:37;68.72;;;58.08;;
43819;SDS011;67762;52.476;6.046;2023-02-13T00:11:03;65.05;;;58.05;;
43819;SDS011;67762;52.476;6.046;2023-02-13T00:13:29;67.35;;;59.40;;
43819;SDS011;67762;52.476;6.046;2023-02-13T00:15:58;66.70;;;59.75;;
43819;SDS011;67762;52.476;6.046;2023-02-13T00:18:25;66.20;;;59.50;;
43819;SDS011;67762;52.476;6.046;2023-02-13T00:20:58;64.28;;;57.35;;
43819;SDS011;67762;52.476;6.046;2023-02-13T00:23:25;63.22;;;56.78;;
43819;SDS011;67762;52.476;6.046;2023-02-13T00:25:51;66.82;;;59.85;;
43819;SDS011;67762;52.476;6.046;2023-02-13T00:28:17;63.65;;;57.22;;
43819;SDS011;67762;52.476;6.046;2023-02-13T00:30:43;65.25;;;58.47;;
43819;SDS011;67762;52.476;6.046;2023-02-13T00:33:08;68.43;;;61.63;;
43819;SDS011;67762;52.476;6.046;2023-02-13T00:35:34;65.35;;;58.60;;
43819;SDS011;67762;52.476;6.046;2023-02-13T00:37:59;70.30;;;62.95;;
43819;SDS011;67762;52.476;6.046;2023-02-13T00:40:25;66.80;;;59.75;;
43819;SDS011;67762;52.476;6.046;2023-02-13T00:42:51;67.32;;;60.30;;
43819;SDS011;67762;52.476;6.046;2023-02-13T00:45:17;68.53;;;61.45;;
43819;SDS011;67762;52.476;6.046;2023-02-13T00:47:42;69.97;;;62.45;;
43819;SDS011;67762;52.476;6.046;2023-02-13T00:50:08;70.93;;;63.70;;
43819;SDS011;67762;52.476;6.046;2023-02-13T00:52:35;66.35;;;59.28;;
43819;SDS011;67762;52.476;6.046;2023-02-13T00:55:01;69.25;;;62.05;;
43819;SDS011;67762;52.476;6.046;2023-02-13T00:57:26;65.80;;;58.83;;
43819;SDS011;67762;52.476;6.046;2023-02-13T00:59:52;66.80;;;59.78;;
43819;SDS011;67762;52.476;6.046;2023-02-13T01:02:18;68.22;;;60.90;;
43819;SDS011;67762;52.476;6.046;2023-02-13T01:04:44;67.72;;;60.55;;
43819;SDS011;67762;52.476;6.046;2023-02-13T01:07:09;69.50;;;62.42;;
43819;SDS011;67762;52.476;6.046;2023-02-13T01:09:35;67.82;;;60.75;;
43819;SDS011;67762;52.476;6.046;2023-02-13T01:12:00;67.38;;;60.55;;
43819;SDS011;67762;52.476;6.046;2023-02-13T01:14:26;70.22;;;62.60;;
43819;SDS011;67762;52.476;6.046;2023-02-13T01:16:51;66.32;;;59.28;;
43819;SDS011;67762;52.476;6.046;2023-02-13T01:19:17;66.50;;;59.70;;
43819;SDS011;67762;52.476;6.046;2023-02-13T01:21:42;68.70;;;61.55;;
43819;SDS011;67762;52.476;6.046;2023-02-13T01:24:08;67.90;;;60.65;;
43819;SDS011;67762;52.476;6.046;2023-02-13T01:26:34;67.03;;;59.78;;
43819;SDS011;67762;52.476;6.046;2023-02-13T01:29:00;64.55;;;57.67;;
43819;SDS011;67762;52.476;6.046;2023-02-13T01:31:26;65.53;;;58.70;;
43819;SDS011;67762;52.476;6.046;2023-02-13T01:33:54;66.75;;;59.95;;
43819;SDS011;67762;52.476;6.046;2023-02-13T01:36:22;63.80;;;57.13;;
43819;SDS011;67762;52.476;6.046;2023-02-13T01:38:51;68.80;;;61.10;;
43819;SDS011;67762;52.476;6.046;2023-02-13T01:41:19;67.40;;;60.33;;
43819;SDS011;67762;52.476;6.046;2023-02-13T01:43:49;65.07;;;58.08;;
43819;SDS011;67762;52.476;6.046;2023-02-13T01:46:42;66.53;;;59.80;;
43819;SDS011;67762;52.476;6.046;2023-02-13T01:49:13;68.60;;;61.45;;
43819;SDS011;67762;52.476;6.046;2023-02-13T01:51:42;68.82;;;61.67;;
43819;SDS011;67762;52.476;6.046;2023-02-13T01:54:11;67.63;;;58.50;;
43819;SDS011;67762;52.476;6.046;2023-02-13T01:56:40;68.20;;;60.72;;
43819;SDS011;67762;52.476;6.046;2023-02-13T01:59:11;68.45;;;61.35;;
43819;SDS011;67762;52.476;6.046;2023-02-13T02:01:41;65.15;;;58.25;;
43819;SDS011;67762;52.476;6.046;2023-02-13T02:04:14;68.55;;;61.55;;
43819;SDS011;67762;52.476;6.046;2023-02-13T02:06:56;65.55;;;58.65;;
43819;SDS011;67762;52.476;6.046;2023-02-13T02:09:30;66.95;;;59.92;;
43819;SDS011;67762;52.476;6.046;2023-02-13T02:11:59;65.72;;;57.88;;
43819;SDS011;67762;52.476;6.046;2023-02-13T02:14:33;66.95;;;59.92;;
43819;SDS011;67762;52.476;6.046;2023-02-13T02:16:59;67.93;;;61.00;;
43819;SDS011;67762;52.476;6.046;2023-02-13T02:27:40;66.10;;;59.08;;
43819;SDS011;67762;52.476;6.046;2023-02-13T02:33:32;67.38;;;60.25;;
43819;SDS011;67762;52.476;6.046;2023-02-13T02:36:40;65.03;;;58.25;;
43819;SDS011;67762;52.476;6.046;2023-02-13T02:45:37;66.63;;;59.53;;
43819;SDS011;67762;52.476;6.046;2023-02-13T02:48:13;65.32;;;58.25;;
43819;SDS011;67762;52.476;6.046;2023-02-13T02:51:20;62.40;;;56.25;;
43819;SDS011;67762;52.476;6.046;2023-02-13T02:56:57;67.25;;;60.65;;
43819;SDS011;67762;52.476;6.046;2023-02-13T02:59:29;66.30;;;59.53;;
43819;SDS011;67762;52.476;6.046;2023-02-13T03:02:15;68.10;;;61.03;;
43819;SDS011;67762;52.476;6.046;2023-02-13T03:05:01;66.55;;;59.60;;
43819;SDS011;67762;52.476;6.046;2023-02-13T03:07:46;66.38;;;57.03;;
43819;SDS011;67762;52.476;6.046;2023-02-13T03:10:16;65.38;;;58.55;;
43819;SDS011;67762;52.476;6.046;2023-02-13T03:15:51;64.20;;;57.63;;
43819;SDS011;67762;52.476;6.046;2023-02-13T03:18:42;67.93;;;60.97;;
43819;SDS011;67762;52.476;6.046;2023-02-13T03:21:46;68.03;;;61.22;;
43819;SDS011;67762;52.476;6.046;2023-02-13T03:27:27;66.35;;;59.38;;
43819;SDS011;67762;52.476;6.046;2023-02-13T03:38:58;64.50;;;57.78;;
43819;SDS011;67762;52.476;6.046;2023-02-13T03:41:37;66.47;;;59.25;;
43819;SDS011;67762;52.476;6.046;2023-02-13T03:46:39;63.53;;;57.00;;
43819;SDS011;67762;52.476;6.046;2023-02-13T03:49:09;64.45;;;57.47;;
43819;SDS011;67762;52.476;6.046;2023-02-13T03:52:00;64.35;;;57.83;;
43819;SDS011;67762;52.476;6.046;2023-02-13T03:54:43;69.40;;;59.42;;
43819;SDS011;67762;52.476;6.046;2023-02-13T03:57:34;65.88;;;59.05;;
43819;SDS011;67762;52.476;6.046;2023-02-13T04:00:20;66.43;;;59.65;;
43819;SDS011;67762;52.476;6.046;2023-02-13T04:02:51;63.28;;;56.55;;
43819;SDS011;67762;52.476;6.046;2023-02-13T04:05:24;66.03;;;59.10;;
43819;SDS011;67762;52.476;6.046;2023-02-13T04:07:52;66.15;;;59.35;;
43819;SDS011;67762;52.476;6.046;2023-02-13T04:10:18;65.80;;;59.20;;
43819;SDS011;67762;52.476;6.046;2023-02-13T04:12:50;66.18;;;58.97;;
43819;SDS011;67762;52.476;6.046;2023-02-13T04:17:54;62.92;;;56.28;;
43819;SDS011;67762;52.476;6.046;2023-02-13T04:20:27;63.92;;;57.13;;
43819;SDS011;67762;52.476;6.046;2023-02-13T04:22:55;63.20;;;56.42;;
43819;SDS011;67762;52.476;6.046;2023-02-13T04:25:20;67.78;;;60.55;;
43819;SDS011;67762;52.476;6.046;2023-02-13T04:27:46;66.47;;;59.90;;
43819;SDS011;67762;52.476;6.046;2023-02-13T04:30:12;63.03;;;56.42;;
43819;SDS011;67762;52.476;6.046;2023-02-13T04:32:38;65.78;;;58.92;;
43819;SDS011;67762;52.476;6.046;2023-02-13T04:35:04;68.10;;;60.97;;
43819;SDS011;67762;52.476;6.046;2023-02-13T04:37:30;65.72;;;58.47;;
43819;SDS011;67762;52.476;6.046;2023-02-13T04:39:55;65.25;;;58.35;;
43819;SDS011;67762;52.476;6.046;2023-02-13T04:42:21;67.82;;;60.70;;
43819;SDS011;67762;52.476;6.046;2023-02-13T04:44:47;65.70;;;58.22;;
43819;SDS011;67762;52.476;6.046;2023-02-13T04:47:13;67.15;;;60.33;;
43819;SDS011;67762;52.476;6.046;2023-02-13T04:49:38;63.45;;;56.92;;
43819;SDS011;67762;52.476;6.046;2023-02-13T04:52:04;63.35;;;56.25;;
43819;SDS011;67762;52.476;6.046;2023-02-13T04:54:29;65.57;;;58.63;;
43819;SDS011;67762;52.476;6.046;2023-02-13T04:56:55;66.78;;;59.78;;
43819;SDS011;67762;52.476;6.046;2023-02-13T04:59:21;67.35;;;60.25;;
43819;SDS011;67762;52.476;6.046;2023-02-13T05:01:46;65.65;;;58.38;;
43819;SDS011;67762;52.476;6.046;2023-02-13T05:04:12;67.28;;;56.28;;
43819;SDS011;67762;52.476;6.046;2023-02-13T05:06:40;69.05;;;61.75;;
43819;SDS011;67762;52.476;6.046;2023-02-13T05:09:06;65.05;;;58.03;;
43819;SDS011;67762;52.476;6.046;2023-02-13T05:11:32;68.65;;;61.35;;
43819;SDS011;67762;52.476;6.046;2023-02-13T05:13:57;65.38;;;57.80;;
43819;SDS011;67762;52.476;6.046;2023-02-13T05:16:23;65.18;;;57.75;;
43819;SDS011;67762;52.476;6.046;2023-02-13T05:18:49;65.57;;;58.83;;
43819;SDS011;67762;52.476;6.046;2023-02-13T05:21:22;63.55;;;56.83;;
43819;SDS011;67762;52.476;6.046;2023-02-13T05:24:06;64.65;;;57.72;;
43819;SDS011;67762;52.476;6.046;2023-02-13T05:26:31;65.38;;;57.88;;
43819;SDS011;67762;52.476;6.046;2023-02-13T05:28:57;62.28;;;54.67;;
43819;SDS011;67762;52.476;6.046;2023-02-13T05:31:41;64.40;;;57.70;;
43819;SDS011;67762;52.476;6.046;2023-02-13T05:34:07;64.97;;;57.60;;
43819;SDS011;67762;52.476;6.046;2023-02-13T05:36:32;65.82;;;58.85;;
43819;SDS011;67762;52.476;6.046;2023-02-13T05:38:58;66.53;;;59.50;;
43819;SDS011;67762;52.476;6.046;2023-02-13T05:41:24;62.28;;;55.67;;
43819;SDS011;67762;52.476;6.046;2023-02-13T05:43:50;64.80;;;58.15;;
43819;SDS011;67762;52.476;6.046;2023-02-13T05:46:16;65.18;;;58.17;;
43819;SDS011;67762;52.476;6.046;2023-02-13T05:48:41;66.57;;;57.20;;
43819;SDS011;67762;52.476;6.046;2023-02-13T05:51:07;64.43;;;57.40;;
43819;SDS011;67762;52.476;6.046;2023-02-13T05:53:33;67.57;;;60.28;;
43819;SDS011;67762;52.476;6.046;2023-02-13T05:56:00;62.80;;;56.03;;
43819;SDS011;67762;52.476;6.046;2023-02-13T05:58:26;69.55;;;61.97;;
43819;SDS011;67762;52.476;6.046;2023-02-13T06:00:54;67.45;;;60.40;;
43819;SDS011;67762;52.476;6.046;2023-02-13T06:03:22;67.93;;;60.80;;
43819;SDS011;67762;52.476;6.046;2023-02-13T06:05:48;70.40;;;59.33;;
43819;SDS011;67762;52.476;6.046;2023-02-13T06:08:14;66.50;;;59.55;;
43819;SDS011;67762;52.476;6.046;2023-02-13T06:10:40;66.47;;;59.53;;
43819;SDS011;67762;52.476;6.046;2023-02-13T06:13:05;66.22;;;59.25;;
43819;SDS011;67762;52.476;6.046;2023-02-13T06:15:31;65.43;;;58.33;;
43819;SDS011;67762;52.476;6.046;2023-02-13T06:17:57;66.75;;;59.88;;
43819;SDS011;67762;52.476;6.046;2023-02-13T06:20:22;68.90;;;61.38;;
43819;SDS011;67762;52.476;6.046;2023-02-13T06:22:51;62.83;;;56.13;;
43819;SDS011;67762;52.476;6.046;2023-02-13T06:25:17;71.43;;;60.63;;
43819;SDS011;67762;52.476;6.046;2023-02-13T06:27:43;61.88;;;55.30;;
43819;SDS011;67762;52.476;6.046;2023-02-13T06:30:09;69.00;;;59.75;;
43819;SDS011;67762;52.476;6.046;2023-02-13T06:32:35;66.63;;;58.75;;
43819;SDS011;67762;52.476;6.046;2023-02-13T06:35:00;66.65;;;59.42;;
43819;SDS011;67762;52.476;6.046;2023-02-13T06:37:26;63.63;;;55.55;;
43819;SDS011;67762;52.476;6.046;2023-02-13T06:39:52;66.10;;;58.17;;
43819;SDS011;67762;52.476;6.046;2023-02-13T06:42:17;73.32;;;58.95;;
43819;SDS011;67762;52.476;6.046;2023-02-13T06:44:43;68.88;;;60.35;;
43819;SDS011;67762;52.476;6.046;2023-02-13T06:47:09;91.68;;;60.75;;
43819;SDS011;67762;52.476;6.046;2023-02-13T06:49:35;70.38;;;61.92;;
43819;SDS011;67762;52.476;6.046;2023-02-13T06:52:00;70.07;;;58.85;;
43819;SDS011;67762;52.476;6.046;2023-02-13T06:54:26;69.47;;;61.60;;
43819;SDS011;67762;52.476;6.046;2023-02-13T06:56:51;62.90;;;55.78;;
43819;SDS011;67762;52.476;6.046;2023-02-13T06:59:17;70.72;;;61.05;;
43819;SDS011;67762;52.476;6.046;2023-02-13T07:01:42;69.82;;;58.15;;
43819;SDS011;67762;52.476;6.046;2023-02-13T07:04:08;73.18;;;59.35;;
43819;SDS011;67762;52.476;6.046;2023-02-13T07:06:34;72.15;;;59.92;;
43819;SDS011;67762;52.476;6.046;2023-02-13T07:09:00;68.43;;;60.38;;
43819;SDS011;67762;52.476;6.046;2023-02-13T07:11:27;69.18;;;58.80;;
43819;SDS011;67762;52.476;6.046;2023-02-13T07:13:52;69.18;;;61.13;;
43819;SDS011;67762;52.476;6.046;2023-02-13T07:16:18;71.25;;;62.22;;
43819;SDS011;67762;52.476;6.046;2023-02-13T07:18:44;72.25;;;60.70;;
43819;SDS011;67762;52.476;6.046;2023-02-13T07:21:09;69.97;;;60.70;;
43819;SDS011;67762;52.476;6.046;2023-02-13T07:23:35;70.05;;;59.58;;
43819;SDS011;67762;52.476;6.046;2023-02-13T07:26:01;69.90;;;62.17;;
43819;SDS011;67762;52.476;6.046;2023-02-13T07:28:27;68.85;;;61.40;;
43819;SDS011;67762;52.476;6.046;2023-02-13T07:30:54;66.97;;;58.33;;
43819;SDS011;67762;52.476;6.046;2023-02-13T07:33:20;73.18;;;60.70;;
43819;SDS011;67762;52.476;6.046;2023-02-13T07:35:47;72.65;;;59.47;;
43819;SDS011;67762;52.476;6.046;2023-02-13T07:38:14;69.53;;;59.80;;
43819;SDS011;67762;52.476;6.046;2023-02-13T07:40:40;68.30;;;60.97;;
43819;SDS011;67762;52.476;6.046;2023-02-13T07:43:06;66.25;;;58.35;;
43819;SDS011;67762;52.476;6.046;2023-02-13T07:45:32;71.88;;;61.88;;
43819;SDS011;67762;52.476;6.046;2023-02-13T07:47:58;68.47;;;61.15;;
43819;SDS011;67762;52.476;6.046;2023-02-13T07:50:24;71.55;;;58.95;;
43819;SDS011;67762;52.476;6.046;2023-02-13T07:55:19;69.07;;;59.40;;
43819;SDS011;67762;52.476;6.046;2023-02-13T07:57:44;66.32;;;57.42;;
43819;SDS011;67762;52.476;6.046;2023-02-13T08:00:10;68.25;;;59.47;;
43819;SDS011;67762;52.476;6.046;2023-02-13T08:02:39;70.03;;;60.72;;
43819;SDS011;67762;52.476;6.046;2023-02-13T08:05:04;70.95;;;60.08;;
43819;SDS011;67762;52.476;6.046;2023-02-13T08:07:30;72.88;;;60.90;;
43819;SDS011;67762;52.476;6.046;2023-02-13T08:09:56;69.43;;;57.10;;
43819;SDS011;67762;52.476;6.046;2023-02-13T08:12:40;69.27;;;59.53;;
43819;SDS011;67762;52.476;6.046;2023-02-13T08:15:06;68.80;;;59.78;;
43819;SDS011;67762;52.476;6.046;2023-02-13T08:17:34;70.32;;;62.03;;
43819;SDS011;67762;52.476;6.046;2023-02-13T08:20:00;64.90;;;57.92;;
43819;SDS011;67762;52.476;6.046;2023-02-13T08:22:26;65.78;;;58.60;;
43819;SDS011;67762;52.476;6.046;2023-02-13T08:24:51;67.00;;;58.58;;
43819;SDS011;67762;52.476;6.046;2023-02-13T08:27:17;71.13;;;60.30;;
43819;SDS011;67762;52.476;6.046;2023-02-13T08:29:43;68.93;;;58.03;;
43819;SDS011;67762;52.476;6.046;2023-02-13T08:32:09;68.25;;;58.25;;
43819;SDS011;67762;52.476;6.046;2023-02-13T08:34:34;69.82;;;57.08;;
43819;SDS011;67762;52.476;6.046;2023-02-13T08:37:00;64.43;;;57.28;;
43819;SDS011;67762;52.476;6.046;2023-02-13T08:39:27;66.40;;;57.60;;
43819;SDS011;67762;52.476;6.046;2023-02-13T08:41:52;63.75;;;56.50;;
43819;SDS011;67762;52.476;6.046;2023-02-13T08:44:18;66.13;;;58.28;;
43819;SDS011;67762;52.476;6.046;2023-02-13T08:46:44;65.82;;;58.67;;
43819;SDS011;67762;52.476;6.046;2023-02-13T08:49:09;65.95;;;58.60;;
43819;SDS011;67762;52.476;6.046;2023-02-13T08:51:35;69.63;;;62.10;;
43819;SDS011;67762;52.476;6.046;2023-02-13T08:54:00;67.85;;;59.97;;
43819;SDS011;67762;52.476;6.046;2023-02-13T08:56:26;68.45;;;59.80;;
43819;SDS011;67762;52.476;6.046;2023-02-13T08:58:51;65.60;;;58.40;;
43819;SDS011;67762;52.476;6.046;2023-02-13T09:01:17;66.18;;;59.28;;
43819;SDS011;67762;52.476;6.046;2023-02-13T09:03:43;67.40;;;60.03;;
43819;SDS011;67762;52.476;6.046;2023-02-13T09:06:09;61.63;;;54.75;;
43819;SDS011;67762;52.476;6.046;2023-02-13T09:08:35;67.70;;;55.47;;
43819;SDS011;67762;52.476;6.046;2023-02-13T09:11:01;65.07;;;58.13;;
43819;SDS011;67762;52.476;6.046;2023-02-13T09:13:28;68.45;;;58.65;;
43819;SDS011;67762;52.476;6.046;2023-02-13T09:16:00;62.78;;;53.75;;
43819;SDS011;67762;52.476;6.046;2023-02-13T09:18:29;67.20;;;59.85;;
43819;SDS011;67762;52.476;6.046;2023-02-13T09:23:37;68.05;;;60.05;;
43819;SDS011;67762;52.476;6.046;2023-02-13T09:26:05;66.28;;;58.78;;
43819;SDS011;67762;52.476;6.046;2023-02-13T09:28:33;65.10;;;57.70;;
43819;SDS011;67762;52.476;6.046;2023-02-13T09:31:10;68.22;;;60.13;;
43819;SDS011;67762;52.476;6.046;2023-02-13T09:33:39;69.93;;;60.22;;
43819;SDS011;67762;52.476;6.046;2023-02-13T09:36:09;66.07;;;58.15;;
43819;SDS011;67762;52.476;6.046;2023-02-13T09:38:39;66.43;;;59.38;;
43819;SDS011;67762;52.476;6.046;2023-02-13T09:41:25;65.88;;;57.97;;
43819;SDS011;67762;52.476;6.046;2023-02-13T09:46:28;62.33;;;55.60;;
43819;SDS011;67762;52.476;6.046;2023-02-13T09:48:59;67.03;;;58.42;;
43819;SDS011;67762;52.476;6.046;2023-02-13T09:51:29;61.70;;;55.05;;
43819;SDS011;67762;52.476;6.046;2023-02-13T09:53:58;65.90;;;58.88;;
43819;SDS011;67762;52.476;6.046;2023-02-13T09:56:31;66.88;;;57.55;;
43819;SDS011;67762;52.476;6.046;2023-02-13T10:05:36;65.47;;;57.15;;
43819;SDS011;67762;52.476;6.046;2023-02-13T10:16:34;62.47;;;54.35;;
43819;SDS011;67762;52.476;6.046;2023-02-13T10:22:13;56.30;;;50.28;;
43819;SDS011;67762;52.476;6.046;2023-02-13T10:24:49;62.37;;;50.13;;
43819;SDS011;67762;52.476;6.046;2023-02-13T10:27:27;69.50;;;60.08;;
43819;SDS011;67762;52.476;6.046;2023-02-13T10:30:04;67.75;;;56.80;;
43819;SDS011;67762;52.476;6.046;2023-02-13T10:32:41;51.88;;;46.25;;
43819;SDS011;67762;52.476;6.046;2023-02-13T10:35:49;67.85;;;59.13;;
43819;SDS011;67762;52.476;6.046;2023-02-13T10:38:21;59.15;;;52.28;;
43819;SDS011;67762;52.476;6.046;2023-02-13T10:41:02;65.75;;;55.80;;
43819;SDS011;67762;52.476;6.046;2023-02-13T10:51:29;67.93;;;60.65;;
43819;SDS011;67762;52.476;6.046;2023-02-13T10:57:00;61.28;;;52.63;;
43819;SDS011;67762;52.476;6.046;2023-02-13T10:59:35;69.85;;;62.05;;
43819;SDS011;67762;52.476;6.046;2023-02-13T11:02:25;59.65;;;53.25;;
43819;SDS011;67762;52.476;6.046;2023-02-13T11:04:57;69.43;;;57.70;;
43819;SDS011;67762;52.476;6.046;2023-02-13T11:07:25;74.18;;;66.53;;
43819;SDS011;67762;52.476;6.046;2023-02-13T11:09:53;64.65;;;57.83;;
43819;SDS011;67762;52.476;6.046;2023-02-13T11:12:28;63.15;;;56.13;;
43819;SDS011;67762;52.476;6.046;2023-02-13T11:15:00;65.95;;;56.47;;
43819;SDS011;67762;52.476;6.046;2023-02-13T11:17:29;75.65;;;67.40;;
43819;SDS011;67762;52.476;6.046;2023-02-13T11:19:58;73.80;;;63.70;;
43819;SDS011;67762;52.476;6.046;2023-02-13T11:25:15;75.10;;;63.85;;
43819;SDS011;67762;52.476;6.046;2023-02-13T11:27:44;80.10;;;64.65;;
43819;SDS011;67762;52.476;6.046;2023-02-13T11:33:00;85.97;;;69.53;;
43819;SDS011;67762;52.476;6.046;2023-02-13T11:35:30;61.33;;;54.45;;
43819;SDS011;67762;52.476;6.046;2023-02-13T11:38:22;90.88;;;70.75;;
43819;SDS011;67762;52.476;6.046;2023-02-13T11:40:49;89.35;;;72.90;;
43819;SDS011;67762;52.476;6.046;2023-02-13T11:43:28;68.53;;;55.85;;
43819;SDS011;67762;52.476;6.046;2023-02-13T11:46:06;77.32;;;67.57;;
43819;SDS011;67762;52.476;6.046;2023-02-13T11:48:38;66.78;;;57.50;;
43819;SDS011;67762;52.476;6.046;2023-02-13T11:51:04;76.40;;;65.57;;
43819;SDS011;67762;52.476;6.046;2023-02-13T11:53:31;69.53;;;57.08;;
43819;SDS011;67762;52.476;6.046;2023-02-13T11:56:09;77.60;;;68.28;;
43819;SDS011;67762;52.476;6.046;2023-02-13T11:58:36;72.47;;;63.97;;
43819;SDS011;67762;52.476;6.046;2023-02-13T12:03:43;71.70;;;63.35;;
43819;SDS011;67762;52.476;6.046;2023-02-13T12:06:27;76.18;;;67.82;;
43819;SDS011;67762;52.476;6.046;2023-02-13T12:08:52;52.03;;;46.63;;
43819;SDS011;67762;52.476;6.046;2023-02-13T12:11:26;70.10;;;57.58;;
43819;SDS011;67762;52.476;6.046;2023-02-13T12:14:03;68.38;;;61.03;;
43819;SDS011;67762;52.476;6.046;2023-02-13T12:16:37;57.55;;;50.47;;
43819;SDS011;67762;52.476;6.046;2023-02-13T12:19:11;71.13;;;63.50;;
43819;SDS011;67762;52.476;6.046;2023-02-13T12:24:57;66.13;;;58.80;;
43819;SDS011;67762;52.476;6.046;2023-02-13T12:33:16;69.45;;;59.75;;
43819;SDS011;67762;52.476;6.046;2023-02-13T12:38:55;68.22;;;61.00;;
43819;SDS011;67762;52.476;6.046;2023-02-13T12:41:34;53.70;;;48.05;;
43819;SDS011;67762;52.476;6.046;2023-02-13T12:51:40;56.05;;;50.17;;
43819;SDS011;67762;52.476;6.046;2023-02-13T13:08:05;65.00;;;58.20;;
43819;SDS011;67762;52.476;6.046;2023-02-13T13:10:42;67.30;;;60.35;;
43819;SDS011;67762;52.476;6.046;2023-02-13T13:22:13;65.30;;;58.70;;
43819;SDS011;67762;52.476;6.046;2023-02-13T13:27:25;66.43;;;59.90;;
43819;SDS011;67762;52.476;6.046;2023-02-13T13:32:24;63.22;;;56.63;;
43819;SDS011;67762;52.476;6.046;2023-02-13T13:34:50;62.22;;;56.47;;
43819;SDS011;67762;52.476;6.046;2023-02-13T13:42:54;61.85;;;55.90;;
43819;SDS011;67762;52.476;6.046;2023-02-13T13:45:36;63.90;;;58.03;;
43819;SDS011;67762;52.476;6.046;2023-02-13T13:49:09;63.60;;;57.63;;
43819;SDS011;67762;52.476;6.046;2023-02-13T13:51:23;60.05;;;54.28;;
43819;SDS011;67762;52.476;6.046;2023-02-13T13:57:02;52.40;;;47.50;;
43819;SDS011;67762;52.476;6.046;2023-02-13T14:07:34;54.97;;;49.43;;
43819;SDS011;67762;52.476;6.046;2023-02-13T14:10:02;54.35;;;48.95;;
43819;SDS011;67762;52.476;6.046;2023-02-13T14:14:55;59.55;;;54.00;;
43819;SDS011;67762;52.476;6.046;2023-02-13T14:22:50;58.13;;;52.78;;
43819;SDS011;67762;52.476;6.046;2023-02-13T14:25:26;54.65;;;49.40;;
43819;SDS011;67762;52.476;6.046;2023-02-13T14:28:02;45.35;;;41.47;;
43819;SDS011;67762;52.476;6.046;2023-02-13T14:30:31;52.65;;;47.65;;
43819;SDS011;67762;52.476;6.046;2023-02-13T14:33:00;60.33;;;54.83;;
43819;SDS011;67762;52.476;6.046;2023-02-13T14:35:31;55.15;;;49.58;;
43819;SDS011;67762;52.476;6.046;2023-02-13T14:38:00;53.90;;;48.55;;
43819;SDS011;67762;52.476;6.046;2023-02-13T14:40:31;60.70;;;55.00;;
43819;SDS011;67762;52.476;6.046;2023-02-13T14:46:08;58.60;;;52.78;;
43819;SDS011;67762;52.476;6.046;2023-02-13T14:48:45;64.63;;;58.60;;
43819;SDS011;67762;52.476;6.046;2023-02-13T14:51:16;60.20;;;54.13;;
43819;SDS011;67762;52.476;6.046;2023-02-13T14:53:54;57.42;;;52.08;;
43819;SDS011;67762;52.476;6.046;2023-02-13T14:56:24;61.97;;;55.88;;
43819;SDS011;67762;52.476;6.046;2023-02-13T14:59:09;64.40;;;58.20;;
43819;SDS011;67762;52.476;6.046;2023-02-13T15:01:51;53.70;;;48.05;;
43819;SDS011;67762;52.476;6.046;2023-02-13T15:07:02;59.20;;;53.35;;
43819;SDS011;67762;52.476;6.046;2023-02-13T15:09:35;55.17;;;49.63;;
43819;SDS011;67762;52.476;6.046;2023-02-13T15:12:22;60.08;;;53.88;;
43819;SDS011;67762;52.476;6.046;2023-02-13T15:20:31;64.28;;;57.40;;
43819;SDS011;67762;52.476;6.046;2023-02-13T15:22:51;60.20;;;54.05;;
43819;SDS011;67762;52.476;6.046;2023-02-13T15:25:22;66.18;;;59.42;;
43819;SDS011;67762;52.476;6.046;2023-02-13T15:27:53;65.32;;;58.78;;
43819;SDS011;67762;52.476;6.046;2023-02-13T15:32:57;69.03;;;61.83;;
43819;SDS011;67762;52.476;6.046;2023-02-13T15:37:52;65.90;;;59.25;;
43819;SDS011;67762;52.476;6.046;2023-02-13T15:42:52;64.43;;;57.83;;
43819;SDS011;67762;52.476;6.046;2023-02-13T15:45:19;69.28;;;62.30;;
43819;SDS011;67762;52.476;6.046;2023-02-13T15:47:47;65.82;;;59.13;;
43819;SDS011;67762;52.476;6.046;2023-02-13T15:50:18;68.95;;;62.17;;
43819;SDS011;67762;52.476;6.046;2023-02-13T15:52:44;67.05;;;60.35;;
43819;SDS011;67762;52.476;6.046;2023-02-13T15:55:17;67.88;;;61.17;;
43819;SDS011;67762;52.476;6.046;2023-02-13T15:57:44;66.75;;;59.95;;
43819;SDS011;67762;52.476;6.046;2023-02-13T16:00:12;65.78;;;59.22;;
43819;SDS011;67762;52.476;6.046;2023-02-13T16:02:48;68.03;;;61.25;;
43819;SDS011;67762;52.476;6.046;2023-02-13T16:05:16;66.68;;;59.88;;
43819;SDS011;67762;52.476;6.046;2023-02-13T16:07:49;70.93;;;63.67;;
43819;SDS011;67762;52.476;6.046;2023-02-13T16:10:16;66.65;;;59.90;;
43819;SDS011;67762;52.476;6.046;2023-02-13T16:12:53;69.90;;;63.20;;
43819;SDS011;67762;52.476;6.046;2023-02-13T16:15:21;67.57;;;60.58;;
43819;SDS011;67762;52.476;6.046;2023-02-13T16:17:49;66.50;;;59.90;;
43819;SDS011;67762;52.476;6.046;2023-02-13T16:20:21;70.22;;;63.20;;
43819;SDS011;67762;52.476;6.046;2023-02-13T16:25:25;66.55;;;59.65;;
43819;SDS011;67762;52.476;6.046;2023-02-13T16:28:40;68.75;;;61.78;;
43819;SDS011;67762;52.476;6.046;2023-02-13T16:30:58;66.93;;;59.97;;
43819;SDS011;67762;52.476;6.046;2023-02-13T16:33:26;68.45;;;60.80;;
43819;SDS011;67762;52.476;6.046;2023-02-13T16:35:58;65.78;;;58.95;;
43819;SDS011;67762;52.476;6.046;2023-02-13T16:38:45;75.88;;;68.28;;
43819;SDS011;67762;52.476;6.046;2023-02-13T16:46:12;74.72;;;66.90;;
43819;SDS011;67762;52.476;6.046;2023-02-13T16:51:28;78.95;;;70.75;;
43819;SDS011;67762;52.476;6.046;2023-02-13T16:53:58;78.25;;;69.50;;
43819;SDS011;67762;52.476;6.046;2023-02-13T16:56:26;79.72;;;71.28;;
43819;SDS011;67762;52.476;6.046;2023-02-13T16:59:21;78.38;;;70.22;;
43819;SDS011;67762;52.476;6.046;2023-02-13T17:04:38;83.70;;;74.57;;
43819;SDS011;67762;52.476;6.046;2023-02-13T17:07:04;83.78;;;73.70;;
43819;SDS011;67762;52.476;6.046;2023-02-13T17:09:39;80.45;;;71.60;;
43819;SDS011;67762;52.476;6.046;2023-02-13T17:12:10;87.15;;;74.15;;
43819;SDS011;67762;52.476;6.046;2023-02-13T17:14:39;83.53;;;73.72;;
43819;SDS011;67762;52.476;6.046;2023-02-13T17:17:08;92.35;;;81.40;;
43819;SDS011;67762;52.476;6.046;2023-02-13T17:19:38;97.22;;;86.00;;
43819;SDS011;67762;52.476;6.046;2023-02-13T17:22:04;89.45;;;79.43;;
43819;SDS011;67762;52.476;6.046;2023-02-13T17:24:30;89.63;;;79.28;;
43819;SDS011;67762;52.476;6.046;2023-02-13T17:26:59;94.82;;;83.18;;
43819;SDS011;67762;52.476;6.046;2023-02-13T17:29:29;96.57;;;82.50;;
43819;SDS011;67762;52.476;6.046;2023-02-13T17:31:55;101.28;;;89.93;;
43819;SDS011;67762;52.476;6.046;2023-02-13T17:34:21;102.90;;;91.20;;
43819;SDS011;67762;52.476;6.046;2023-02-13T17:36:47;105.35;;;90.50;;
43819;SDS011;67762;52.476;6.046;2023-02-13T17:39:13;112.22;;;91.95;;
43819;SDS011;67762;52.476;6.046;2023-02-13T17:41:42;102.85;;;90.95;;
43819;SDS011;67762;52.476;6.046;2023-02-13T17:44:11;126.72;;;102.65;;
43819;SDS011;67762;52.476;6.046;2023-02-13T17:46:38;117.57;;;93.55;;
43819;SDS011;67762;52.476;6.046;2023-02-13T17:49:04;119.57;;;99.20;;